KPOB/POB METAR and TAF weather

Enter ICAO airport designator
Station Type Date Time Source
KPOB METAR 2020/07/06 02:56 UTC NOAA

KPOB 060256Z AUTO 00000KT 10SM CLR 24/22 A3003 RMK AO2 SLP170 T02440219 53012 $


Station Type Date Time Source
KPOB Decoded METAR 2020/07/06 02:56 UTC NOAA

Pope Air Force Base, NC, United States (KPOB) 35-10N 079-02W 61M
Jul 05, 2020 - 10:56 PM EDT / 2020.07.06 0256 UTC
Wind: Calm:0
Visibility: 10 mile(s):0
Sky conditions: clear
Temperature: 75.9 F (24.4 C)
Dew Point: 71.4 F (21.9 C)
Relative Humidity: 85%
Pressure (altimeter): 30.03 in. Hg (1016 hPa)
Pressure tendency: 0.04 inches (1.2 hPa) higher than three hours ago
ob: KPOB 060256Z AUTO 00000KT 10SM CLR 24/22 A3003 RMK AO2 SLP170 T02440219 53012
cycle: 3

Station Type Date Time Source
KPOB TAF 2020/07/06 01:08 UTC NOAA

TAF KPOB 060100Z 0601/0707 17006KT 9999 SCT050 QNH2995INS
BECMG 0619/0620 17006KT 9000 -SHRA BKN045 QNH3002INS
TEMPO 0620/0622 16010G15KT 8000 -TSRA BKN040CB
BECMG 0701/0702 16006KT 9999 NSW SCT050 QNH3000INS TX34/0621Z TN21/0610Z

Example: see airport list